sensor_id;sensor_type;location;lat;lon;timestamp;pressure;altitude;pressure_sealevel;temperature;humidity
81155;BME280;70631;50.436;7.826;2024-02-28T00:01:47;99397.38;;;5.23;77.96
81155;BME280;70631;50.436;7.826;2024-02-28T00:04:13;99399.19;;;5.22;77.76
81155;BME280;70631;50.436;7.826;2024-02-28T00:06:38;99396.44;;;5.24;77.72
81155;BME280;70631;50.436;7.826;2024-02-28T00:09:04;99398.34;;;5.22;78.05
81155;BME280;70631;50.436;7.826;2024-02-28T00:11:30;99401.72;;;5.24;78.09
81155;BME280;70631;50.436;7.826;2024-02-28T00:13:55;99404.47;;;5.22;77.72
81155;BME280;70631;50.436;7.826;2024-02-28T00:16:20;99416.63;;;5.25;77.86
81155;BME280;70631;50.436;7.826;2024-02-28T00:18:45;99407.00;;;5.24;78.12
81155;BME280;70631;50.436;7.826;2024-02-28T00:21:11;99410.91;;;5.31;78.21
81155;BME280;70631;50.436;7.826;2024-02-28T00:23:36;99416.28;;;5.30;77.52
81155;BME280;70631;50.436;7.826;2024-02-28T00:26:01;99427.28;;;5.36;78.03
81155;BME280;70631;50.436;7.826;2024-02-28T00:28:26;99415.88;;;5.36;77.72
81155;BME280;70631;50.436;7.826;2024-02-28T00:30:52;99420.00;;;5.27;77.74
81155;BME280;70631;50.436;7.826;2024-02-28T00:33:17;99415.03;;;5.22;77.81
81155;BME280;70631;50.436;7.826;2024-02-28T00:35:42;99416.06;;;5.20;77.71
81155;BME280;70631;50.436;7.826;2024-02-28T00:38:07;99417.00;;;5.19;77.71
81155;BME280;70631;50.436;7.826;2024-02-28T00:40:33;99418.69;;;5.20;77.96
81155;BME280;70631;50.436;7.826;2024-02-28T00:42:59;99417.78;;;5.21;77.94
81155;BME280;70631;50.436;7.826;2024-02-28T00:45:24;99416.94;;;5.20;77.76
81155;BME280;70631;50.436;7.826;2024-02-28T00:47:49;99419.66;;;5.19;77.58
81155;BME280;70631;50.436;7.826;2024-02-28T00:50:15;99415.22;;;5.19;77.78
81155;BME280;70631;50.436;7.826;2024-02-28T00:52:40;99419.47;;;5.22;77.67
81155;BME280;70631;50.436;7.826;2024-02-28T00:55:07;99413.97;;;5.25;77.93
81155;BME280;70631;50.436;7.826;2024-02-28T00:57:32;99412.91;;;5.28;77.48
81155;BME280;70631;50.436;7.826;2024-02-28T00:59:57;99412.59;;;5.32;77.36
81155;BME280;70631;50.436;7.826;2024-02-28T01:02:23;99414.16;;;5.35;77.50
81155;BME280;70631;50.436;7.826;2024-02-28T01:04:48;99415.75;;;5.37;77.11
81155;BME280;70631;50.436;7.826;2024-02-28T01:07:13;99417.34;;;5.27;76.95
81155;BME280;70631;50.436;7.826;2024-02-28T01:09:38;99412.06;;;5.27;77.25
81155;BME280;70631;50.436;7.826;2024-02-28T01:12:04;99412.50;;;5.21;77.15
81155;BME280;70631;50.436;7.826;2024-02-28T01:14:29;99414.38;;;5.19;77.37
81155;BME280;70631;50.436;7.826;2024-02-28T01:16:54;99416.06;;;5.20;77.07
81155;BME280;70631;50.436;7.826;2024-02-28T01:19:20;99419.47;;;5.22;77.31
81155;BME280;70631;50.436;7.826;2024-02-28T01:21:45;99419.47;;;5.22;77.38
81155;BME280;70631;50.436;7.826;2024-02-28T01:24:10;99421.16;;;5.23;77.60
81155;BME280;70631;50.436;7.826;2024-02-28T01:26:36;99418.41;;;5.25;77.59
81155;BME280;70631;50.436;7.826;2024-02-28T01:29:01;99423.47;;;5.28;77.19
81155;BME280;70631;50.436;7.826;2024-02-28T01:31:26;99418.19;;;5.28;77.15
81155;BME280;70631;50.436;7.826;2024-02-28T01:33:52;99411.22;;;5.27;76.97
81155;BME280;70631;50.436;7.826;2024-02-28T01:36:17;99415.03;;;5.22;77.06
81155;BME280;70631;50.436;7.826;2024-02-28T01:38:42;99409.09;;;5.19;77.19
81155;BME280;70631;50.436;7.826;2024-02-28T01:41:07;99416.25;;;5.17;77.45
81155;BME280;70631;50.436;7.826;2024-02-28T01:43:33;99421.56;;;5.17;77.51
81155;BME280;70631;50.436;7.826;2024-02-28T01:46:04;99425.88;;;5.18;77.46
81155;BME280;70631;50.436;7.826;2024-02-28T01:48:31;99414.56;;;5.16;77.61
81155;BME280;70631;50.436;7.826;2024-02-28T01:50:57;99425.16;;;5.16;77.34
81155;BME280;70631;50.436;7.826;2024-02-28T01:53:22;99418.28;;;5.13;77.45
81155;BME280;70631;50.436;7.826;2024-02-28T01:55:48;99416.69;;;5.11;77.28
81155;BME280;70631;50.436;7.826;2024-02-28T01:58:13;99413.31;;;5.09;77.29
81155;BME280;70631;50.436;7.826;2024-02-28T02:00:39;99410.78;;;5.07;77.61
81155;BME280;70631;50.436;7.826;2024-02-28T02:03:05;99418.16;;;5.02;77.54
81155;BME280;70631;50.436;7.826;2024-02-28T02:05:30;99418.44;;;4.98;77.40
81155;BME280;70631;50.436;7.826;2024-02-28T02:07:57;99421.50;;;4.91;77.59
81155;BME280;70631;50.436;7.826;2024-02-28T02:10:24;99427.63;;;4.92;77.54
81155;BME280;70631;50.436;7.826;2024-02-28T02:12:49;99427.75;;;4.90;77.67
81155;BME280;70631;50.436;7.826;2024-02-28T02:15:14;99428.91;;;4.86;77.62
81155;BME280;70631;50.436;7.826;2024-02-28T02:17:40;99429.63;;;4.88;77.97
81155;BME280;70631;50.436;7.826;2024-02-28T02:20:05;99429.31;;;4.93;77.73
81155;BME280;70631;50.436;7.826;2024-02-28T02:22:36;99431.22;;;4.91;78.21
81155;BME280;70631;50.436;7.826;2024-02-28T02:25:03;99434.72;;;4.91;77.72
81155;BME280;70631;50.436;7.826;2024-02-28T02:27:29;99435.25;;;4.97;77.95
81155;BME280;70631;50.436;7.826;2024-02-28T02:29:54;99437.72;;;5.00;77.46
81155;BME280;70631;50.436;7.826;2024-02-28T02:32:19;99438.44;;;5.02;77.92
81155;BME280;70631;50.436;7.826;2024-02-28T02:34:44;99433.16;;;5.02;77.78
81155;BME280;70631;50.436;7.826;2024-02-28T02:37:10;99434.13;;;5.01;77.66
81155;BME280;70631;50.436;7.826;2024-02-28T02:39:35;99435.56;;;4.92;77.23
81155;BME280;70631;50.436;7.826;2024-02-28T02:42:01;99432.06;;;4.91;77.73
81155;BME280;70631;50.436;7.826;2024-02-28T02:44:26;99439.16;;;4.91;78.17
81155;BME280;70631;50.436;7.826;2024-02-28T02:46:52;99432.81;;;4.94;77.64
81155;BME280;70631;50.436;7.826;2024-02-28T02:49:17;99431.88;;;4.95;78.03
81155;BME280;70631;50.436;7.826;2024-02-28T02:51:44;99434.19;;;4.86;78.08
81155;BME280;70631;50.436;7.826;2024-02-28T02:54:09;99439.25;;;4.89;78.48
81155;BME280;70631;50.436;7.826;2024-02-28T02:56:34;99437.56;;;4.88;78.23
81155;BME280;70631;50.436;7.826;2024-02-28T02:58:59;99433.97;;;4.89;78.10
81155;BME280;70631;50.436;7.826;2024-02-28T03:01:25;99447.78;;;4.80;77.72
81155;BME280;70631;50.436;7.826;2024-02-28T03:03:50;99447.78;;;4.80;78.25
81155;BME280;70631;50.436;7.826;2024-02-28T03:06:15;99446.84;;;4.81;78.15
81155;BME280;70631;50.436;7.826;2024-02-28T03:08:40;99441.34;;;4.84;78.04
81155;BME280;70631;50.436;7.826;2024-02-28T03:11:06;99437.97;;;4.82;78.06
81155;BME280;70631;50.436;7.826;2024-02-28T03:13:33;99439.34;;;4.88;78.26
81155;BME280;70631;50.436;7.826;2024-02-28T03:15:59;99444.53;;;4.89;78.20
81155;BME280;70631;50.436;7.826;2024-02-28T03:18:24;99436.50;;;4.91;77.92
81155;BME280;70631;50.436;7.826;2024-02-28T03:20:49;99436.41;;;4.93;77.77
81155;BME280;70631;50.436;7.826;2024-02-28T03:23:14;99436.59;;;4.89;77.76
81155;BME280;70631;50.436;7.826;2024-02-28T03:25:40;99440.31;;;4.87;78.17
81155;BME280;70631;50.436;7.826;2024-02-28T03:28:05;99432.47;;;4.85;78.10
81155;BME280;70631;50.436;7.826;2024-02-28T03:30:30;99447.78;;;4.80;78.07
81155;BME280;70631;50.436;7.826;2024-02-28T03:32:55;99446.94;;;4.80;77.79
81155;BME280;70631;50.436;7.826;2024-02-28T03:35:21;99445.53;;;4.74;77.60
81155;BME280;70631;50.436;7.826;2024-02-28T03:37:46;99456.09;;;4.74;78.08
81155;BME280;70631;50.436;7.826;2024-02-28T03:40:11;99456.09;;;4.74;77.67
81155;BME280;70631;50.436;7.826;2024-02-28T03:42:37;99459.66;;;4.73;77.80
81155;BME280;70631;50.436;7.826;2024-02-28T03:45:02;99464.09;;;4.73;77.97
81155;BME280;70631;50.436;7.826;2024-02-28T03:47:28;99464.22;;;4.71;77.99
81155;BME280;70631;50.436;7.826;2024-02-28T03:49:53;99464.50;;;4.67;78.06
81155;BME280;70631;50.436;7.826;2024-02-28T03:52:22;99470.63;;;4.67;78.27
81155;BME280;70631;50.436;7.826;2024-02-28T03:54:47;99474.44;;;4.63;77.72
81155;BME280;70631;50.436;7.826;2024-02-28T03:57:12;99484.03;;;4.64;78.29
81155;BME280;70631;50.436;7.826;2024-02-28T03:59:38;99488.38;;;4.65;78.16
81155;BME280;70631;50.436;7.826;2024-02-28T04:02:05;99477.81;;;4.65;78.22
81155;BME280;70631;50.436;7.826;2024-02-28T04:04:30;99485.81;;;4.64;78.01
81155;BME280;70631;50.436;7.826;2024-02-28T04:06:55;99486.59;;;4.51;78.18
81155;BME280;70631;50.436;7.826;2024-02-28T04:09:21;99492.53;;;4.55;78.16
81155;BME280;70631;50.436;7.826;2024-02-28T04:11:47;99493.19;;;4.58;78.19
81155;BME280;70631;50.436;7.826;2024-02-28T04:14:12;99501.97;;;4.59;78.58
81155;BME280;70631;50.436;7.826;2024-02-28T04:16:41;99506.66;;;4.54;78.11
81155;BME280;70631;50.436;7.826;2024-02-28T04:19:06;99505.34;;;4.61;78.09
81155;BME280;70631;50.436;7.826;2024-02-28T04:21:31;99499.13;;;4.62;78.06
81155;BME280;70631;50.436;7.826;2024-02-28T04:23:56;99499.31;;;4.59;78.28
81155;BME280;70631;50.436;7.826;2024-02-28T04:26:22;99506.09;;;4.63;78.25
81155;BME280;70631;50.436;7.826;2024-02-28T04:28:47;99506.75;;;4.67;77.85
81155;BME280;70631;50.436;7.826;2024-02-28T04:31:12;99521.94;;;4.63;77.80
81155;BME280;70631;50.436;7.826;2024-02-28T04:33:37;99516.66;;;4.63;77.85
81155;BME280;70631;50.436;7.826;2024-02-28T04:36:03;99514.66;;;4.67;77.96
81155;BME280;70631;50.436;7.826;2024-02-28T04:38:28;99521.72;;;4.66;78.19
81155;BME280;70631;50.436;7.826;2024-02-28T04:40:53;99531.00;;;4.59;77.87
81155;BME280;70631;50.436;7.826;2024-02-28T04:43:19;99528.44;;;4.57;77.98
81155;BME280;70631;50.436;7.826;2024-02-28T04:45:44;99535.22;;;4.62;78.07
81155;BME280;70631;50.436;7.826;2024-02-28T04:48:09;99530.78;;;4.62;78.34
81155;BME280;70631;50.436;7.826;2024-02-28T04:50:34;99528.34;;;4.59;77.88
81155;BME280;70631;50.436;7.826;2024-02-28T04:53:00;99524.47;;;4.65;77.91
81155;BME280;70631;50.436;7.826;2024-02-28T04:55:25;99523.41;;;4.67;77.73
81155;BME280;70631;50.436;7.826;2024-02-28T04:57:50;99536.25;;;4.59;77.82
81155;BME280;70631;50.436;7.826;2024-02-28T05:00:15;99531.53;;;4.64;78.16
81155;BME280;70631;50.436;7.826;2024-02-28T05:02:41;99527.66;;;4.70;77.83
81155;BME280;70631;50.436;7.826;2024-02-28T05:05:06;99535.88;;;4.65;77.92
81155;BME280;70631;50.436;7.826;2024-02-28T05:07:31;99533.88;;;4.69;78.00
81155;BME280;70631;50.436;7.826;2024-02-28T05:09:57;99535.47;;;4.71;78.09
81155;BME280;70631;50.436;7.826;2024-02-28T05:12:22;99524.25;;;4.68;77.97
81155;BME280;70631;50.436;7.826;2024-02-28T05:14:47;99536.94;;;4.75;77.77
81155;BME280;70631;50.436;7.826;2024-02-28T05:17:12;99540.38;;;4.77;77.82
81155;BME280;70631;50.436;7.826;2024-02-28T05:19:39;99537.72;;;4.77;77.67
81155;BME280;70631;50.436;7.826;2024-02-28T05:22:04;99538.66;;;4.76;77.95
81155;BME280;70631;50.436;7.826;2024-02-28T05:24:29;99545.66;;;4.77;78.19
81155;BME280;70631;50.436;7.826;2024-02-28T05:26:54;99545.72;;;4.76;77.75
81155;BME280;70631;50.436;7.826;2024-02-28T05:29:20;99545.91;;;4.73;78.48
81155;BME280;70631;50.436;7.826;2024-02-28T05:31:45;99544.22;;;4.72;78.47
81155;BME280;70631;50.436;7.826;2024-02-28T05:34:10;99554.47;;;4.76;78.31
81155;BME280;70631;50.436;7.826;2024-02-28T05:36:36;99554.47;;;4.76;78.04
81155;BME280;70631;50.436;7.826;2024-02-28T05:39:01;99557.06;;;4.78;77.87
81155;BME280;70631;50.436;7.826;2024-02-28T05:41:27;99568.47;;;4.78;77.91
81155;BME280;70631;50.436;7.826;2024-02-28T05:43:52;99564.28;;;4.74;77.67
81155;BME280;70631;50.436;7.826;2024-02-28T05:46:18;99570.53;;;4.73;77.75
81155;BME280;70631;50.436;7.826;2024-02-28T05:48:44;99571.66;;;4.69;77.80
81155;BME280;70631;50.436;7.826;2024-02-28T05:51:10;99579.59;;;4.69;78.16
81155;BME280;70631;50.436;7.826;2024-02-28T05:53:35;99569.03;;;4.69;78.04
81155;BME280;70631;50.436;7.826;2024-02-28T05:56:05;99568.28;;;4.67;77.77
81155;BME280;70631;50.436;7.826;2024-02-28T05:58:30;99553.59;;;4.63;77.60
81155;BME280;70631;50.436;7.826;2024-02-28T06:00:56;99567.34;;;4.54;77.17
81155;BME280;70631;50.436;7.826;2024-02-28T06:03:22;99568.47;;;4.50;77.77
81155;BME280;70631;50.436;7.826;2024-02-28T06:05:47;99577.16;;;4.52;77.80
81155;BME280;70631;50.436;7.826;2024-02-28T06:08:12;99587.59;;;4.53;77.28
81155;BME280;70631;50.436;7.826;2024-02-28T06:10:38;99596.56;;;4.51;77.45
81155;BME280;70631;50.436;7.826;2024-02-28T06:13:03;99603.16;;;4.44;77.71
81155;BME280;70631;50.436;7.826;2024-02-28T06:15:28;99604.47;;;4.51;78.10
81155;BME280;70631;50.436;7.826;2024-02-28T06:17:57;99601.66;;;4.54;77.32
81155;BME280;70631;50.436;7.826;2024-02-28T06:20:22;99607.59;;;4.57;77.50
81155;BME280;70631;50.436;7.826;2024-02-28T06:22:47;99597.91;;;4.58;77.51
81155;BME280;70631;50.436;7.826;2024-02-28T06:25:13;99605.41;;;4.50;77.73
81155;BME280;70631;50.436;7.826;2024-02-28T06:27:47;99613.34;;;4.50;77.17
81155;BME280;70631;50.436;7.826;2024-02-28T06:30:12;99612.69;;;4.46;77.49
81155;BME280;70631;50.436;7.826;2024-02-28T06:32:38;99619.56;;;4.49;77.33
81155;BME280;70631;50.436;7.826;2024-02-28T06:35:04;99623.88;;;4.50;77.69
81155;BME280;70631;50.436;7.826;2024-02-28T06:37:29;99619.00;;;4.44;77.52
81155;BME280;70631;50.436;7.826;2024-02-28T06:39:54;99619.66;;;4.47;77.53
81155;BME280;70631;50.436;7.826;2024-02-28T06:42:20;99626.53;;;4.50;77.35
81155;BME280;70631;50.436;7.826;2024-02-28T06:44:45;99629.47;;;4.45;77.34
81155;BME280;70631;50.436;7.826;2024-02-28T06:47:10;99632.75;;;4.49;77.42
81155;BME280;70631;50.436;7.826;2024-02-28T06:49:35;99639.81;;;4.48;77.66
81155;BME280;70631;50.436;7.826;2024-02-28T06:52:00;99640.19;;;4.42;78.01
81155;BME280;70631;50.436;7.826;2024-02-28T06:54:27;99643.31;;;4.49;77.50
81155;BME280;70631;50.436;7.826;2024-02-28T06:56:52;99641.31;;;4.52;77.45
81155;BME280;70631;50.436;7.826;2024-02-28T06:59:18;99642.06;;;4.54;77.83
81155;BME280;70631;50.436;7.826;2024-02-28T07:01:43;99647.63;;;4.50;77.41
81155;BME280;70631;50.436;7.826;2024-02-28T07:04:08;99652.72;;;4.53;77.19
81155;BME280;70631;50.436;7.826;2024-02-28T07:06:33;99652.63;;;4.54;77.33
81155;BME280;70631;50.436;7.826;2024-02-28T07:08:59;99646.78;;;4.49;77.29
81155;BME280;70631;50.436;7.826;2024-02-28T07:11:24;99652.56;;;4.56;77.20
81155;BME280;70631;50.436;7.826;2024-02-28T07:13:49;99658.50;;;4.59;77.43
81155;BME280;70631;50.436;7.826;2024-02-28T07:16:14;99649.63;;;4.60;77.68
81155;BME280;70631;50.436;7.826;2024-02-28T07:18:40;99651.03;;;4.52;77.20
81155;BME280;70631;50.436;7.826;2024-02-28T07:21:05;99658.50;;;4.59;77.28
81155;BME280;70631;50.436;7.826;2024-02-28T07:23:32;99651.22;;;4.63;77.26
81155;BME280;70631;50.436;7.826;2024-02-28T07:25:57;99650.28;;;4.64;77.08
81155;BME280;70631;50.436;7.826;2024-02-28T07:28:22;99652.91;;;4.64;76.91
81155;BME280;70631;50.436;7.826;2024-02-28T07:30:47;99653.28;;;4.72;76.84
81155;BME280;70631;50.436;7.826;2024-02-28T07:33:13;99654.88;;;4.75;76.50
81155;BME280;70631;50.436;7.826;2024-02-28T07:35:44;99657.91;;;4.69;76.58
81155;BME280;70631;50.436;7.826;2024-02-28T07:38:10;99667.22;;;4.74;76.61
81155;BME280;70631;50.436;7.826;2024-02-28T07:40:35;99666.28;;;4.75;76.67
81155;BME280;70631;50.436;7.826;2024-02-28T07:43:01;99666.97;;;4.79;76.10
81155;BME280;70631;50.436;7.826;2024-02-28T07:45:26;99676.75;;;4.77;76.52
81155;BME280;70631;50.436;7.826;2024-02-28T07:47:51;99679.13;;;4.81;76.55
81155;BME280;70631;50.436;7.826;2024-02-28T07:50:17;99684.13;;;4.86;76.19
81155;BME280;70631;50.436;7.826;2024-02-28T07:52:42;99681.28;;;4.89;76.19
81155;BME280;70631;50.436;7.826;2024-02-28T07:55:07;99682.03;;;4.91;76.57
81155;BME280;70631;50.436;7.826;2024-02-28T07:57:33;99676.66;;;4.93;76.29
81155;BME280;70631;50.436;7.826;2024-02-28T07:59:58;99678.34;;;4.94;76.01
81155;BME280;70631;50.436;7.826;2024-02-28T08:02:23;99680.78;;;4.97;76.12
81155;BME280;70631;50.436;7.826;2024-02-28T08:04:49;99691.34;;;4.97;76.22
81155;BME280;70631;50.436;7.826;2024-02-28T08:07:15;99688.53;;;5.00;76.02
81155;BME280;70631;50.436;7.826;2024-02-28T08:09:41;99681.19;;;5.05;75.95
81155;BME280;70631;50.436;7.826;2024-02-28T08:12:06;99681.63;;;5.11;76.12
81155;BME280;70631;50.436;7.826;2024-02-28T08:14:31;99677.63;;;5.18;75.38
81155;BME280;70631;50.436;7.826;2024-02-28T08:16:56;99681.44;;;5.14;75.63
81155;BME280;70631;50.436;7.826;2024-02-28T08:19:22;99684.38;;;5.10;75.56
81155;BME280;70631;50.436;7.826;2024-02-28T08:21:47;99689.66;;;5.10;75.91
81155;BME280;70631;50.436;7.826;2024-02-28T08:24:12;99696.44;;;5.14;75.51
81155;BME280;70631;50.436;7.826;2024-02-28T08:26:38;99697.75;;;5.21;75.77
81155;BME280;70631;50.436;7.826;2024-02-28T08:29:04;99703.50;;;5.28;75.33
81155;BME280;70631;50.436;7.826;2024-02-28T08:31:29;99712.91;;;5.32;75.82
81155;BME280;70631;50.436;7.826;2024-02-28T08:33:54;99705.72;;;5.34;75.33
81155;BME280;70631;50.436;7.826;2024-02-28T08:36:21;99711.88;;;5.34;75.46
81155;BME280;70631;50.436;7.826;2024-02-28T08:38:46;99710.91;;;5.35;75.46
81155;BME280;70631;50.436;7.826;2024-02-28T08:41:11;99719.38;;;5.40;75.11
81155;BME280;70631;50.436;7.826;2024-02-28T08:43:40;99717.53;;;5.42;74.92
81155;BME280;70631;50.436;7.826;2024-02-28T08:46:06;99713.94;;;5.43;74.96
81155;BME280;70631;50.436;7.826;2024-02-28T08:48:32;99711.84;;;5.48;75.16
81155;BME280;70631;50.436;7.826;2024-02-28T08:50:57;99716.53;;;5.58;74.73
81155;BME280;70631;50.436;7.826;2024-02-28T08:53:23;99721.59;;;5.61;74.54
81155;BME280;70631;50.436;7.826;2024-02-28T08:55:48;99719.25;;;5.56;74.18
81155;BME280;70631;50.436;7.826;2024-02-28T08:58:14;99708.25;;;5.49;73.68
81155;BME280;70631;50.436;7.826;2024-02-28T09:00:39;99725.16;;;5.47;73.88
81155;BME280;70631;50.436;7.826;2024-02-28T09:03:05;99726.66;;;5.51;74.22
81155;BME280;70631;50.436;7.826;2024-02-28T09:05:30;99717.16;;;5.61;73.75
81155;BME280;70631;50.436;7.826;2024-02-28T09:07:55;99724.72;;;5.67;73.86
81155;BME280;70631;50.436;7.826;2024-02-28T09:10:22;99713.84;;;5.72;73.52
81155;BME280;70631;50.436;7.826;2024-02-28T09:12:49;99726.34;;;5.82;73.52
81155;BME280;70631;50.436;7.826;2024-02-28T09:15:14;99726.06;;;5.87;73.23
81155;BME280;70631;50.436;7.826;2024-02-28T09:17:40;99737.97;;;5.94;73.26
81155;BME280;70631;50.436;7.826;2024-02-28T09:20:05;99724.84;;;5.93;72.98
81155;BME280;70631;50.436;7.826;2024-02-28T09:22:31;99728.88;;;5.98;73.16
81155;BME280;70631;50.436;7.826;2024-02-28T09:24:57;99727.81;;;6.01;72.66
81155;BME280;70631;50.436;7.826;2024-02-28T09:27:22;99732.78;;;6.05;72.39
81155;BME280;70631;50.436;7.826;2024-02-28T09:29:47;99739.59;;;6.09;72.39
81155;BME280;70631;50.436;7.826;2024-02-28T09:32:13;99747.53;;;6.09;72.03
81155;BME280;70631;50.436;7.826;2024-02-28T09:34:39;99739.88;;;6.05;72.22
81155;BME280;70631;50.436;7.826;2024-02-28T09:37:05;99736.28;;;6.06;71.96
81155;BME280;70631;50.436;7.826;2024-02-28T09:39:30;99743.63;;;6.15;71.92
81155;BME280;70631;50.436;7.826;2024-02-28T09:41:55;99740.03;;;6.29;71.98
81155;BME280;70631;50.436;7.826;2024-02-28T09:44:22;99741.88;;;6.41;71.79
81155;BME280;70631;50.436;7.826;2024-02-28T09:46:51;99748.78;;;6.56;72.03
81155;BME280;70631;50.436;7.826;2024-02-28T09:49:18;99739.78;;;6.71;71.61
81155;BME280;70631;50.436;7.826;2024-02-28T09:51:44;99737.03;;;6.86;70.88
81155;BME280;70631;50.436;7.826;2024-02-28T09:54:10;99751.97;;;6.87;70.25
81155;BME280;70631;50.436;7.826;2024-02-28T09:56:35;99751.75;;;6.90;70.21
81155;BME280;70631;50.436;7.826;2024-02-28T09:59:01;99754.09;;;6.94;69.76
81155;BME280;70631;50.436;7.826;2024-02-28T10:01:28;99755.56;;;6.86;70.53
81155;BME280;70631;50.436;7.826;2024-02-28T10:03:54;99746.44;;;6.90;70.57
81155;BME280;70631;50.436;7.826;2024-02-28T10:06:21;99753.78;;;6.99;70.40
81155;BME280;70631;50.436;7.826;2024-02-28T10:08:46;99752.59;;;7.03;70.43
81155;BME280;70631;50.436;7.826;2024-02-28T10:11:24;99757.69;;;7.06;70.18
81155;BME280;70631;50.436;7.826;2024-02-28T10:13:49;99761.47;;;7.15;69.62
81155;BME280;70631;50.436;7.826;2024-02-28T10:16:15;99762.31;;;7.15;69.86
81155;BME280;70631;50.436;7.826;2024-02-28T10:18:44;99773.34;;;7.22;69.71
81155;BME280;70631;50.436;7.826;2024-02-28T10:21:10;99775.69;;;7.26;69.09
81155;BME280;70631;50.436;7.826;2024-02-28T10:23:37;99767.22;;;7.21;68.99
81155;BME280;70631;50.436;7.826;2024-02-28T10:26:03;99771.22;;;7.27;68.80
81155;BME280;70631;50.436;7.826;2024-02-28T10:28:28;99774.81;;;7.39;68.72
81155;BME280;70631;50.436;7.826;2024-02-28T10:30:54;99767.66;;;7.52;69.05
81155;BME280;70631;50.436;7.826;2024-02-28T10:33:19;99777.81;;;7.71;68.49
81155;BME280;70631;50.436;7.826;2024-02-28T10:35:45;99772.13;;;7.88;67.44
81155;BME280;70631;50.436;7.826;2024-02-28T10:38:11;99774.50;;;8.04;66.81
81155;BME280;70631;50.436;7.826;2024-02-28T10:40:38;99776.72;;;8.21;66.90
81155;BME280;70631;50.436;7.826;2024-02-28T10:43:05;99778.72;;;8.30;66.27
81155;BME280;70631;50.436;7.826;2024-02-28T10:45:33;99770.38;;;8.47;66.17
81155;BME280;70631;50.436;7.826;2024-02-28T10:48:00;99767.91;;;8.68;65.96
81155;BME280;70631;50.436;7.826;2024-02-28T10:50:25;99759.44;;;8.85;65.19
81155;BME280;70631;50.436;7.826;2024-02-28T10:52:52;99767.31;;;8.87;64.86
81155;BME280;70631;50.436;7.826;2024-02-28T10:55:22;99773.84;;;8.94;64.70
81155;BME280;70631;50.436;7.826;2024-02-28T10:58:15;99765.53;;;8.99;63.75
81155;BME280;70631;50.436;7.826;2024-02-28T11:00:42;99763.34;;;9.04;64.11
81155;BME280;70631;50.436;7.826;2024-02-28T11:03:09;99760.09;;;9.11;63.50
81155;BME280;70631;50.436;7.826;2024-02-28T11:05:40;99756.94;;;9.29;62.87
81155;BME280;70631;50.436;7.826;2024-02-28T11:08:09;99762.75;;;9.45;62.33
81155;BME280;70631;50.436;7.826;2024-02-28T11:10:35;99762.63;;;9.58;62.09
81155;BME280;70631;50.436;7.826;2024-02-28T11:13:01;99760.63;;;9.82;61.04
81155;BME280;70631;50.436;7.826;2024-02-28T11:15:26;99751.94;;;10.12;61.11
81155;BME280;70631;50.436;7.826;2024-02-28T11:17:53;99742.03;;;10.67;60.61
81155;BME280;70631;50.436;7.826;2024-02-28T11:20:18;99733.94;;;11.39;58.24
81155;BME280;70631;50.436;7.826;2024-02-28T11:22:43;99723.16;;;12.19;57.45
81155;BME280;70631;50.436;7.826;2024-02-28T11:25:09;99723.63;;;12.91;54.97
81155;BME280;70631;50.436;7.826;2024-02-28T11:27:45;99720.91;;;13.65;54.15
81155;BME280;70631;50.436;7.826;2024-02-28T11:30:11;99718.75;;;14.14;52.88
81155;BME280;70631;50.436;7.826;2024-02-28T11:32:37;99720.44;;;14.50;51.82
81155;BME280;70631;50.436;7.826;2024-02-28T11:35:02;99718.72;;;14.93;51.31
81155;BME280;70631;50.436;7.826;2024-02-28T11:37:28;99718.41;;;15.22;50.04
81155;BME280;70631;50.436;7.826;2024-02-28T11:39:54;99716.09;;;15.35;50.30
81155;BME280;70631;50.436;7.826;2024-02-28T11:42:19;99715.97;;;15.45;46.74
81155;BME280;70631;50.436;7.826;2024-02-28T11:44:55;99716.34;;;15.16;47.79
81155;BME280;70631;50.436;7.826;2024-02-28T11:47:22;99711.69;;;14.92;48.88
81155;BME280;70631;50.436;7.826;2024-02-28T11:49:48;99718.69;;;14.85;49.20
81155;BME280;70631;50.436;7.826;2024-02-28T11:52:14;99713.13;;;15.12;48.33
81155;BME280;70631;50.436;7.826;2024-02-28T11:54:39;99706.56;;;15.41;47.79
81155;BME280;70631;50.436;7.826;2024-02-28T11:57:05;99704.69;;;15.75;47.70
81155;BME280;70631;50.436;7.826;2024-02-28T11:59:31;99708.47;;;16.15;46.21
81155;BME280;70631;50.436;7.826;2024-02-28T12:01:56;99701.59;;;16.37;46.13
81155;BME280;70631;50.436;7.826;2024-02-28T12:04:24;99705.47;;;16.50;45.84
81155;BME280;70631;50.436;7.826;2024-02-28T12:06:50;99689.97;;;16.61;45.72
81155;BME280;70631;50.436;7.826;2024-02-28T12:09:15;99697.69;;;16.23;44.79
81155;BME280;70631;50.436;7.826;2024-02-28T12:11:40;99701.66;;;15.62;44.64
81155;BME280;70631;50.436;7.826;2024-02-28T12:14:07;99692.56;;;15.21;45.06
81155;BME280;70631;50.436;7.826;2024-02-28T12:16:35;99700.16;;;14.74;45.94
81155;BME280;70631;50.436;7.826;2024-02-28T12:19:03;99701.56;;;14.42;46.66
81155;BME280;70631;50.436;7.826;2024-02-28T12:21:29;99690.66;;;14.18;46.90
81155;BME280;70631;50.436;7.826;2024-02-28T12:23:56;99686.75;;;13.94;47.59
81155;BME280;70631;50.436;7.826;2024-02-28T12:26:21;99686.97;;;13.83;48.07
81155;BME280;70631;50.436;7.826;2024-02-28T12:28:47;99679.88;;;13.74;48.93
81155;BME280;70631;50.436;7.826;2024-02-28T12:31:12;99681.47;;;13.67;49.06
81155;BME280;70631;50.436;7.826;2024-02-28T12:33:39;99675.81;;;13.42;49.21
81155;BME280;70631;50.436;7.826;2024-02-28T12:36:04;99681.00;;;13.26;49.83
81155;BME280;70631;50.436;7.826;2024-02-28T12:38:30;99671.72;;;13.21;49.60
81155;BME280;70631;50.436;7.826;2024-02-28T12:40:56;99668.38;;;13.09;49.71
81155;BME280;70631;50.436;7.826;2024-02-28T12:43:21;99658.84;;;12.97;50.08
81155;BME280;70631;50.436;7.826;2024-02-28T12:45:46;99658.84;;;12.97;50.32
81155;BME280;70631;50.436;7.826;2024-02-28T12:48:12;99651.81;;;12.96;50.40
81155;BME280;70631;50.436;7.826;2024-02-28T12:50:37;99658.88;;;12.87;50.83
81155;BME280;70631;50.436;7.826;2024-02-28T12:53:03;99656.06;;;12.89;50.93
81155;BME280;70631;50.436;7.826;2024-02-28T12:55:28;99647.94;;;12.80;50.71
81155;BME280;70631;50.436;7.826;2024-02-28T12:57:53;99645.69;;;12.76;51.42
81155;BME280;70631;50.436;7.826;2024-02-28T13:00:19;99648.81;;;12.71;50.72
81155;BME280;70631;50.436;7.826;2024-02-28T13:02:44;99636.28;;;12.72;50.77